Kodiak, AK

9:19 AM AKDT on September 19, 2014 (GMT -0800)
Bob Plyler on Selief Lane | Change Station
CLOSE
Current Station
Personal Weather Station
Location: Kodiak, AK
Elevation: 115 ft
Nearby Weather Stations

Elev 115 ft 57.80 °N, 152.39 °W | Updated 2 seconds ago

Scattered Clouds
Scattered Clouds
45.0 °F
Feels Like 45 °F
N
0.0
Wind Variable Wind from NE
Gusts 0.0 mph

Today
High -- | Low -- °F
--% Chance of Precip.
Yesterday
High -- | Low -- °F
Precip. -- in
7:48 AM 8:16 PM
Waning Crescent, 18% visible
Pressure 29.25 in
Visibility 10.0 miles
Clouds Few 3000 ft
Scattered Clouds 25000 ft
Windchill 45 °F
Dew Point 38 °F
Humidity 75%
Rainfall 0.00 in
Snow Depth 0 in , 0 in , 0 in
UV 0 out of 12
Pollen Not available.
Air Quality Not available.
Flu Activity Not available.
METAR PADQ 191653Z 00000KT 10SM FEW030 SCT250 09/05 A2924 RMK AO2 SLP903 T00940050 $

More Conditions Fewer Conditions

Pressure 29.25 in
Visibility 10.0 miles
Clouds Few 3000 ft
Scattered Clouds 25000 ft
Windchill 45 °F
Dew Point 38 °F
Humidity 75%
Rainfall 0.00 in
Snow Depth 0 in , 0 in , 0 in
UV 0 out of 12
Pollen Not available.
Air Quality Not available.
Flu Activity Not available.
METAR PADQ 191653Z 00000KT 10SM FEW030 SCT250 09/05 A2924 RMK AO2 SLP903 T00940050 $

More Conditions Fewer Conditions

10-Day Weather Forecast

Almanac

Astronomy

Sep. 19, 2014 Rise Set
Actual Time 7:48 AM AKDT 8:16 PM AKDT
Civil Twilight 7:09 AM AKDT 8:55 PM AKDT
Nautical Twilight 6:22 AM AKDT 9:43 PM AKDT
Astronomical Twilight 5:30 AM AKDT 10:33 PM AKDT
Moon 3:01 AM AKDT 6:27 PM AKDT
Length of Visible Light 13h 46m
Length of Day
12h 28m
Tomorrow will be 4m 57s shorter.
Waning Crescent, 18% of the Moon is Illuminated
Today
Waning Crescent
Sep 24
New
Oct 1
First Quarter
Oct 8
Full
Oct 15
Last Quarter

Today's Extremes

State Highs State Lows

Community

WunderPhotos

Upload Photos

1,754,655 photos uploaded!

Nearby

Snow Depth

Station Depth Elevation
Fort Yukon 0 in 430 ft
Port Graham 0 in 300 ft
Summit Creek 0 in 1400 ft
MF Bradley River 5 in 2300 ft
Turnagain Pass 2 in 1880 ft

Earthquake Activity

City Distance Mag. Time & Date
No recent earthquake activity has been reported nearby.
Minimum magnitude displayed is 2.5.

Coastal Water Temperatures

Place Temperature
No Stations Reporting

Nearby Weather Stations